sensor_id;sensor_type;location;lat;lon;timestamp;P1;durP1;ratioP1;P2;durP2;ratioP2
42840;SDS011;28491;46.898;7.660;2022-12-07T00:03:43;27.17;;;16.65;;
42840;SDS011;28491;46.898;7.660;2022-12-07T00:06:11;23.55;;;15.98;;
42840;SDS011;28491;46.898;7.660;2022-12-07T00:08:37;23.10;;;14.85;;
42840;SDS011;28491;46.898;7.660;2022-12-07T00:11:04;22.42;;;15.38;;
42840;SDS011;28491;46.898;7.660;2022-12-07T00:13:35;22.27;;;15.20;;
42840;SDS011;28491;46.898;7.660;2022-12-07T00:16:05;19.30;;;13.52;;
42840;SDS011;28491;46.898;7.660;2022-12-07T00:18:39;22.10;;;15.77;;
42840;SDS011;28491;46.898;7.660;2022-12-07T00:21:27;23.58;;;14.75;;
42840;SDS011;28491;46.898;7.660;2022-12-07T00:23:52;21.50;;;13.23;;
42840;SDS011;28491;46.898;7.660;2022-12-07T00:26:20;27.90;;;16.05;;
42840;SDS011;28491;46.898;7.660;2022-12-07T00:28:54;22.73;;;15.68;;
42840;SDS011;28491;46.898;7.660;2022-12-07T00:31:22;25.15;;;14.35;;
42840;SDS011;28491;46.898;7.660;2022-12-07T00:33:48;34.03;;;17.95;;
42840;SDS011;28491;46.898;7.660;2022-12-07T00:36:16;26.27;;;15.75;;
42840;SDS011;28491;46.898;7.660;2022-12-07T00:38:44;25.73;;;15.15;;
42840;SDS011;28491;46.898;7.660;2022-12-07T00:41:16;20.30;;;14.10;;
42840;SDS011;28491;46.898;7.660;2022-12-07T00:43:44;27.00;;;16.55;;
42840;SDS011;28491;46.898;7.660;2022-12-07T00:46:11;20.80;;;15.65;;
42840;SDS011;28491;46.898;7.660;2022-12-07T00:48:38;22.98;;;14.02;;
42840;SDS011;28491;46.898;7.660;2022-12-07T00:51:03;22.23;;;13.65;;
42840;SDS011;28491;46.898;7.660;2022-12-07T00:53:30;18.73;;;12.65;;
42840;SDS011;28491;46.898;7.660;2022-12-07T00:55:58;20.70;;;12.77;;
42840;SDS011;28491;46.898;7.660;2022-12-07T00:58:29;20.65;;;13.70;;
42840;SDS011;28491;46.898;7.660;2022-12-07T01:00:54;20.98;;;13.57;;
42840;SDS011;28491;46.898;7.660;2022-12-07T01:03:25;20.10;;;13.73;;
42840;SDS011;28491;46.898;7.660;2022-12-07T01:05:51;21.42;;;12.73;;
42840;SDS011;28491;46.898;7.660;2022-12-07T01:08:18;19.88;;;12.82;;
42840;SDS011;28491;46.898;7.660;2022-12-07T01:10:44;18.80;;;12.57;;
42840;SDS011;28491;46.898;7.660;2022-12-07T01:13:10;21.63;;;13.55;;
42840;SDS011;28491;46.898;7.660;2022-12-07T01:15:38;24.13;;;14.10;;
42840;SDS011;28491;46.898;7.660;2022-12-07T01:18:08;20.90;;;13.45;;
42840;SDS011;28491;46.898;7.660;2022-12-07T01:20:34;22.25;;;14.43;;
42840;SDS011;28491;46.898;7.660;2022-12-07T01:23:00;23.45;;;13.90;;
42840;SDS011;28491;46.898;7.660;2022-12-07T01:25:25;21.58;;;14.68;;
42840;SDS011;28491;46.898;7.660;2022-12-07T01:27:51;22.00;;;14.07;;
42840;SDS011;28491;46.898;7.660;2022-12-07T01:30:16;19.25;;;12.55;;
42840;SDS011;28491;46.898;7.660;2022-12-07T01:32:42;21.88;;;12.45;;
42840;SDS011;28491;46.898;7.660;2022-12-07T01:35:08;19.70;;;13.63;;
42840;SDS011;28491;46.898;7.660;2022-12-07T01:37:34;20.38;;;13.27;;
42840;SDS011;28491;46.898;7.660;2022-12-07T01:40:01;22.85;;;13.85;;
42840;SDS011;28491;46.898;7.660;2022-12-07T01:42:26;19.95;;;13.65;;
42840;SDS011;28491;46.898;7.660;2022-12-07T01:47:43;17.92;;;12.60;;
42840;SDS011;28491;46.898;7.660;2022-12-07T01:50:15;20.30;;;12.38;;
42840;SDS011;28491;46.898;7.660;2022-12-07T01:52:41;17.95;;;12.18;;
42840;SDS011;28491;46.898;7.660;2022-12-07T01:55:09;19.50;;;12.55;;
42840;SDS011;28491;46.898;7.660;2022-12-07T01:57:39;18.10;;;12.43;;
42840;SDS011;28491;46.898;7.660;2022-12-07T02:00:07;17.77;;;12.20;;
42840;SDS011;28491;46.898;7.660;2022-12-07T02:02:35;20.92;;;12.63;;
42840;SDS011;28491;46.898;7.660;2022-12-07T02:05:03;14.98;;;9.55;;
42840;SDS011;28491;46.898;7.660;2022-12-07T02:07:30;16.38;;;11.18;;
42840;SDS011;28491;46.898;7.660;2022-12-07T02:09:57;15.77;;;10.25;;
42840;SDS011;28491;46.898;7.660;2022-12-07T02:12:36;14.32;;;10.05;;
42840;SDS011;28491;46.898;7.660;2022-12-07T02:15:02;14.73;;;9.95;;
42840;SDS011;28491;46.898;7.660;2022-12-07T02:17:29;16.48;;;10.68;;
42840;SDS011;28491;46.898;7.660;2022-12-07T02:20:23;17.67;;;11.88;;
42840;SDS011;28491;46.898;7.660;2022-12-07T02:28:58;16.73;;;10.82;;
42840;SDS011;28491;46.898;7.660;2022-12-07T02:31:41;16.85;;;11.43;;
42840;SDS011;28491;46.898;7.660;2022-12-07T02:34:24;14.35;;;9.93;;
42840;SDS011;28491;46.898;7.660;2022-12-07T02:36:57;16.90;;;10.20;;
42840;SDS011;28491;46.898;7.660;2022-12-07T02:39:31;15.10;;;10.95;;
42840;SDS011;28491;46.898;7.660;2022-12-07T02:42:15;15.13;;;10.75;;
42840;SDS011;28491;46.898;7.660;2022-12-07T02:44:44;15.23;;;10.63;;
42840;SDS011;28491;46.898;7.660;2022-12-07T02:47:12;14.25;;;8.45;;
42840;SDS011;28491;46.898;7.660;2022-12-07T02:49:41;16.90;;;10.48;;
42840;SDS011;28491;46.898;7.660;2022-12-07T02:52:07;15.38;;;9.52;;
42840;SDS011;28491;46.898;7.660;2022-12-07T02:54:33;14.68;;;10.45;;
42840;SDS011;28491;46.898;7.660;2022-12-07T03:02:39;15.90;;;10.25;;
42840;SDS011;28491;46.898;7.660;2022-12-07T03:05:15;14.02;;;10.02;;
42840;SDS011;28491;46.898;7.660;2022-12-07T03:08:02;17.02;;;11.10;;
42840;SDS011;28491;46.898;7.660;2022-12-07T03:11:10;14.98;;;9.93;;
42840;SDS011;28491;46.898;7.660;2022-12-07T03:16:42;15.85;;;9.27;;
42840;SDS011;28491;46.898;7.660;2022-12-07T03:19:16;14.27;;;9.27;;
42840;SDS011;28491;46.898;7.660;2022-12-07T03:21:46;15.80;;;9.63;;
42840;SDS011;28491;46.898;7.660;2022-12-07T03:24:20;17.50;;;11.90;;
42840;SDS011;28491;46.898;7.660;2022-12-07T03:26:51;15.65;;;9.73;;
42840;SDS011;28491;46.898;7.660;2022-12-07T03:32:48;12.60;;;9.20;;
42840;SDS011;28491;46.898;7.660;2022-12-07T03:35:26;16.30;;;9.80;;
42840;SDS011;28491;46.898;7.660;2022-12-07T03:41:34;15.13;;;9.05;;
42840;SDS011;28491;46.898;7.660;2022-12-07T03:43:37;14.70;;;9.05;;
42840;SDS011;28491;46.898;7.660;2022-12-07T03:49:45;14.48;;;9.57;;
42840;SDS011;28491;46.898;7.660;2022-12-07T03:52:16;18.65;;;11.55;;
42840;SDS011;28491;46.898;7.660;2022-12-07T03:54:51;13.77;;;9.25;;
42840;SDS011;28491;46.898;7.660;2022-12-07T03:57:17;14.77;;;10.18;;
42840;SDS011;28491;46.898;7.660;2022-12-07T03:59:43;15.77;;;10.98;;
42840;SDS011;28491;46.898;7.660;2022-12-07T04:02:11;15.27;;;10.10;;
42840;SDS011;28491;46.898;7.660;2022-12-07T04:04:38;15.45;;;10.57;;
42840;SDS011;28491;46.898;7.660;2022-12-07T04:07:04;14.75;;;9.90;;
42840;SDS011;28491;46.898;7.660;2022-12-07T04:09:30;15.35;;;10.10;;
42840;SDS011;28491;46.898;7.660;2022-12-07T04:11:55;18.50;;;9.85;;
42840;SDS011;28491;46.898;7.660;2022-12-07T04:14:21;17.67;;;11.43;;
42840;SDS011;28491;46.898;7.660;2022-12-07T04:16:47;15.23;;;9.50;;
42840;SDS011;28491;46.898;7.660;2022-12-07T04:19:14;18.10;;;11.02;;
42840;SDS011;28491;46.898;7.660;2022-12-07T04:21:41;15.30;;;11.55;;
42840;SDS011;28491;46.898;7.660;2022-12-07T04:24:07;16.40;;;10.35;;
42840;SDS011;28491;46.898;7.660;2022-12-07T04:26:32;16.20;;;11.38;;
42840;SDS011;28491;46.898;7.660;2022-12-07T04:28:58;17.65;;;11.63;;
42840;SDS011;28491;46.898;7.660;2022-12-07T04:31:23;16.75;;;10.35;;
42840;SDS011;28491;46.898;7.660;2022-12-07T04:33:49;15.88;;;10.45;;
42840;SDS011;28491;46.898;7.660;2022-12-07T04:36:15;16.83;;;10.38;;
42840;SDS011;28491;46.898;7.660;2022-12-07T04:38:40;19.30;;;11.25;;
42840;SDS011;28491;46.898;7.660;2022-12-07T04:41:06;18.05;;;10.98;;
42840;SDS011;28491;46.898;7.660;2022-12-07T04:43:32;15.50;;;10.25;;
42840;SDS011;28491;46.898;7.660;2022-12-07T04:45:58;19.52;;;11.30;;
42840;SDS011;28491;46.898;7.660;2022-12-07T04:48:24;19.25;;;11.70;;
42840;SDS011;28491;46.898;7.660;2022-12-07T04:50:49;16.75;;;11.80;;
42840;SDS011;28491;46.898;7.660;2022-12-07T04:53:15;16.13;;;10.38;;
42840;SDS011;28491;46.898;7.660;2022-12-07T04:55:40;17.55;;;11.52;;
42840;SDS011;28491;46.898;7.660;2022-12-07T04:58:06;18.33;;;10.95;;
42840;SDS011;28491;46.898;7.660;2022-12-07T05:00:32;18.88;;;11.43;;
42840;SDS011;28491;46.898;7.660;2022-12-07T05:02:57;20.88;;;11.93;;
42840;SDS011;28491;46.898;7.660;2022-12-07T05:05:23;18.02;;;10.63;;
42840;SDS011;28491;46.898;7.660;2022-12-07T05:07:49;20.63;;;12.70;;
42840;SDS011;28491;46.898;7.660;2022-12-07T05:10:15;17.75;;;10.82;;
42840;SDS011;28491;46.898;7.660;2022-12-07T05:12:41;16.63;;;11.05;;
42840;SDS011;28491;46.898;7.660;2022-12-07T05:15:06;17.88;;;12.20;;
42840;SDS011;28491;46.898;7.660;2022-12-07T05:17:32;21.85;;;12.90;;
42840;SDS011;28491;46.898;7.660;2022-12-07T05:19:57;20.55;;;11.88;;
42840;SDS011;28491;46.898;7.660;2022-12-07T05:22:23;22.20;;;13.32;;
42840;SDS011;28491;46.898;7.660;2022-12-07T05:24:52;20.15;;;11.85;;
42840;SDS011;28491;46.898;7.660;2022-12-07T05:27:21;21.50;;;12.33;;
42840;SDS011;28491;46.898;7.660;2022-12-07T05:29:47;20.98;;;11.90;;
42840;SDS011;28491;46.898;7.660;2022-12-07T05:32:14;21.52;;;12.65;;
42840;SDS011;28491;46.898;7.660;2022-12-07T05:34:39;22.42;;;12.82;;
42840;SDS011;28491;46.898;7.660;2022-12-07T05:37:05;23.95;;;14.23;;
42840;SDS011;28491;46.898;7.660;2022-12-07T05:39:30;22.52;;;13.73;;
42840;SDS011;28491;46.898;7.660;2022-12-07T05:41:56;21.92;;;13.57;;
42840;SDS011;28491;46.898;7.660;2022-12-07T05:44:36;26.55;;;14.00;;
42840;SDS011;28491;46.898;7.660;2022-12-07T05:47:02;22.50;;;14.13;;
42840;SDS011;28491;46.898;7.660;2022-12-07T05:49:28;29.50;;;17.83;;
42840;SDS011;28491;46.898;7.660;2022-12-07T05:51:53;25.60;;;14.63;;
42840;SDS011;28491;46.898;7.660;2022-12-07T05:54:19;28.52;;;16.20;;
42840;SDS011;28491;46.898;7.660;2022-12-07T05:56:44;26.90;;;14.30;;
42840;SDS011;28491;46.898;7.660;2022-12-07T05:59:10;28.17;;;14.02;;
42840;SDS011;28491;46.898;7.660;2022-12-07T06:01:51;23.30;;;13.27;;
42840;SDS011;28491;46.898;7.660;2022-12-07T06:04:22;22.52;;;14.90;;
42840;SDS011;28491;46.898;7.660;2022-12-07T06:06:49;25.35;;;13.57;;
42840;SDS011;28491;46.898;7.660;2022-12-07T06:09:15;20.92;;;12.73;;
42840;SDS011;28491;46.898;7.660;2022-12-07T06:11:41;19.98;;;13.60;;
42840;SDS011;28491;46.898;7.660;2022-12-07T06:14:25;26.45;;;11.95;;
42840;SDS011;28491;46.898;7.660;2022-12-07T06:16:51;21.95;;;14.30;;
42840;SDS011;28491;46.898;7.660;2022-12-07T06:19:16;22.25;;;13.23;;
42840;SDS011;28491;46.898;7.660;2022-12-07T06:21:42;20.45;;;13.25;;
42840;SDS011;28491;46.898;7.660;2022-12-07T06:24:09;19.25;;;12.68;;
42840;SDS011;28491;46.898;7.660;2022-12-07T06:26:36;18.23;;;11.68;;
42840;SDS011;28491;46.898;7.660;2022-12-07T06:29:02;21.10;;;12.07;;
42840;SDS011;28491;46.898;7.660;2022-12-07T06:31:28;17.45;;;11.02;;
42840;SDS011;28491;46.898;7.660;2022-12-07T06:34:07;17.73;;;11.50;;
42840;SDS011;28491;46.898;7.660;2022-12-07T06:36:35;20.15;;;10.68;;
42840;SDS011;28491;46.898;7.660;2022-12-07T06:39:01;21.17;;;12.73;;
42840;SDS011;28491;46.898;7.660;2022-12-07T06:41:27;21.33;;;12.25;;
42840;SDS011;28491;46.898;7.660;2022-12-07T06:43:53;17.77;;;10.77;;
42840;SDS011;28491;46.898;7.660;2022-12-07T06:46:18;17.75;;;12.15;;
42840;SDS011;28491;46.898;7.660;2022-12-07T06:48:44;14.30;;;9.75;;
42840;SDS011;28491;46.898;7.660;2022-12-07T06:51:10;14.77;;;9.95;;
42840;SDS011;28491;46.898;7.660;2022-12-07T06:53:36;15.45;;;9.05;;
42840;SDS011;28491;46.898;7.660;2022-12-07T06:56:02;15.27;;;10.05;;
42840;SDS011;28491;46.898;7.660;2022-12-07T06:58:28;15.20;;;10.30;;
42840;SDS011;28491;46.898;7.660;2022-12-07T07:00:54;14.23;;;8.77;;
42840;SDS011;28491;46.898;7.660;2022-12-07T07:03:19;15.93;;;9.65;;
42840;SDS011;28491;46.898;7.660;2022-12-07T07:05:45;13.27;;;8.73;;
42840;SDS011;28491;46.898;7.660;2022-12-07T07:08:11;14.73;;;9.75;;
42840;SDS011;28491;46.898;7.660;2022-12-07T07:10:37;15.93;;;9.88;;
42840;SDS011;28491;46.898;7.660;2022-12-07T07:13:03;14.45;;;8.88;;
42840;SDS011;28491;46.898;7.660;2022-12-07T07:15:29;15.15;;;9.52;;
42840;SDS011;28491;46.898;7.660;2022-12-07T07:17:55;15.50;;;9.15;;
42840;SDS011;28491;46.898;7.660;2022-12-07T07:20:21;13.88;;;8.65;;
42840;SDS011;28491;46.898;7.660;2022-12-07T07:22:47;13.90;;;9.30;;
42840;SDS011;28491;46.898;7.660;2022-12-07T07:25:13;15.10;;;9.73;;
42840;SDS011;28491;46.898;7.660;2022-12-07T07:27:38;16.52;;;11.18;;
42840;SDS011;28491;46.898;7.660;2022-12-07T07:30:04;17.23;;;10.80;;
42840;SDS011;28491;46.898;7.660;2022-12-07T07:32:30;18.13;;;12.73;;
42840;SDS011;28491;46.898;7.660;2022-12-07T07:34:55;14.70;;;9.10;;
42840;SDS011;28491;46.898;7.660;2022-12-07T07:37:21;13.23;;;8.95;;
42840;SDS011;28491;46.898;7.660;2022-12-07T07:39:46;14.93;;;9.73;;
42840;SDS011;28491;46.898;7.660;2022-12-07T07:42:12;17.23;;;11.05;;
42840;SDS011;28491;46.898;7.660;2022-12-07T07:44:37;18.85;;;11.70;;
42840;SDS011;28491;46.898;7.660;2022-12-07T07:47:03;18.33;;;12.23;;
42840;SDS011;28491;46.898;7.660;2022-12-07T07:49:29;16.70;;;11.48;;
42840;SDS011;28491;46.898;7.660;2022-12-07T07:51:54;18.92;;;11.10;;
42840;SDS011;28491;46.898;7.660;2022-12-07T07:54:20;20.63;;;13.35;;
42840;SDS011;28491;46.898;7.660;2022-12-07T07:56:45;22.48;;;14.13;;
42840;SDS011;28491;46.898;7.660;2022-12-07T07:59:11;17.02;;;10.40;;
42840;SDS011;28491;46.898;7.660;2022-12-07T08:01:36;18.33;;;11.32;;
42840;SDS011;28491;46.898;7.660;2022-12-07T08:04:02;16.92;;;11.07;;
42840;SDS011;28491;46.898;7.660;2022-12-07T08:06:27;21.33;;;13.93;;
42840;SDS011;28491;46.898;7.660;2022-12-07T08:08:53;17.42;;;12.38;;
42840;SDS011;28491;46.898;7.660;2022-12-07T08:11:19;20.15;;;12.15;;
42840;SDS011;28491;46.898;7.660;2022-12-07T08:13:45;19.25;;;12.68;;
42840;SDS011;28491;46.898;7.660;2022-12-07T08:18:43;19.58;;;12.95;;
42840;SDS011;28491;46.898;7.660;2022-12-07T08:21:09;19.42;;;12.38;;
42840;SDS011;28491;46.898;7.660;2022-12-07T08:23:38;19.15;;;13.23;;
42840;SDS011;28491;46.898;7.660;2022-12-07T08:26:04;18.50;;;12.27;;
42840;SDS011;28491;46.898;7.660;2022-12-07T08:28:32;19.30;;;12.07;;
42840;SDS011;28491;46.898;7.660;2022-12-07T08:31:01;21.45;;;12.73;;
42840;SDS011;28491;46.898;7.660;2022-12-07T08:33:28;19.90;;;14.00;;
42840;SDS011;28491;46.898;7.660;2022-12-07T08:35:53;19.63;;;13.75;;
42840;SDS011;28491;46.898;7.660;2022-12-07T08:38:19;16.95;;;11.93;;
42840;SDS011;28491;46.898;7.660;2022-12-07T08:40:52;21.73;;;14.20;;
42840;SDS011;28491;46.898;7.660;2022-12-07T08:43:22;18.23;;;12.35;;
42840;SDS011;28491;46.898;7.660;2022-12-07T08:45:48;21.00;;;13.23;;
42840;SDS011;28491;46.898;7.660;2022-12-07T08:48:30;20.88;;;14.38;;
42840;SDS011;28491;46.898;7.660;2022-12-07T08:50:57;20.77;;;13.00;;
42840;SDS011;28491;46.898;7.660;2022-12-07T08:53:23;19.42;;;11.77;;
42840;SDS011;28491;46.898;7.660;2022-12-07T08:55:49;18.33;;;10.63;;
42840;SDS011;28491;46.898;7.660;2022-12-07T08:58:14;17.23;;;10.52;;
42840;SDS011;28491;46.898;7.660;2022-12-07T09:00:40;14.15;;;9.70;;
42840;SDS011;28491;46.898;7.660;2022-12-07T09:03:06;17.58;;;10.68;;
42840;SDS011;28491;46.898;7.660;2022-12-07T09:05:32;18.33;;;10.18;;
42840;SDS011;28491;46.898;7.660;2022-12-07T09:07:59;14.82;;;11.48;;
42840;SDS011;28491;46.898;7.660;2022-12-07T09:10:26;16.90;;;9.55;;
42840;SDS011;28491;46.898;7.660;2022-12-07T09:12:52;16.75;;;10.23;;
42840;SDS011;28491;46.898;7.660;2022-12-07T09:15:18;16.00;;;9.40;;
42840;SDS011;28491;46.898;7.660;2022-12-07T09:17:44;15.05;;;9.63;;
42840;SDS011;28491;46.898;7.660;2022-12-07T09:20:09;16.17;;;10.73;;
42840;SDS011;28491;46.898;7.660;2022-12-07T09:22:35;16.85;;;10.80;;
42840;SDS011;28491;46.898;7.660;2022-12-07T09:25:01;14.27;;;9.68;;
42840;SDS011;28491;46.898;7.660;2022-12-07T09:27:28;15.32;;;9.95;;
42840;SDS011;28491;46.898;7.660;2022-12-07T09:29:53;16.92;;;10.07;;
42840;SDS011;28491;46.898;7.660;2022-12-07T09:32:19;19.98;;;10.23;;
42840;SDS011;28491;46.898;7.660;2022-12-07T09:34:44;15.63;;;10.35;;
42840;SDS011;28491;46.898;7.660;2022-12-07T09:37:10;18.17;;;11.32;;
42840;SDS011;28491;46.898;7.660;2022-12-07T09:39:39;17.80;;;11.85;;
42840;SDS011;28491;46.898;7.660;2022-12-07T09:42:05;18.95;;;11.38;;
42840;SDS011;28491;46.898;7.660;2022-12-07T09:44:32;17.20;;;10.55;;
42840;SDS011;28491;46.898;7.660;2022-12-07T09:46:58;15.75;;;10.15;;
42840;SDS011;28491;46.898;7.660;2022-12-07T09:49:25;20.92;;;12.98;;
42840;SDS011;28491;46.898;7.660;2022-12-07T09:52:02;17.88;;;10.77;;
42840;SDS011;28491;46.898;7.660;2022-12-07T09:54:43;15.45;;;10.25;;
42840;SDS011;28491;46.898;7.660;2022-12-07T09:57:13;17.80;;;10.07;;
42840;SDS011;28491;46.898;7.660;2022-12-07T09:59:39;18.00;;;12.02;;
42840;SDS011;28491;46.898;7.660;2022-12-07T10:04:51;17.83;;;11.10;;
42840;SDS011;28491;46.898;7.660;2022-12-07T10:07:17;17.92;;;12.52;;
42840;SDS011;28491;46.898;7.660;2022-12-07T10:09:42;19.38;;;12.43;;
42840;SDS011;28491;46.898;7.660;2022-12-07T10:12:09;18.38;;;11.40;;
42840;SDS011;28491;46.898;7.660;2022-12-07T10:14:39;20.70;;;13.32;;
42840;SDS011;28491;46.898;7.660;2022-12-07T10:22:38;20.38;;;11.82;;
42840;SDS011;28491;46.898;7.660;2022-12-07T10:25:25;17.23;;;11.82;;
42840;SDS011;28491;46.898;7.660;2022-12-07T10:30:47;21.00;;;13.55;;
42840;SDS011;28491;46.898;7.660;2022-12-07T10:36:00;22.63;;;14.60;;
42840;SDS011;28491;46.898;7.660;2022-12-07T10:38:43;24.63;;;16.17;;
42840;SDS011;28491;46.898;7.660;2022-12-07T10:41:32;31.17;;;16.10;;
42840;SDS011;28491;46.898;7.660;2022-12-07T10:43:57;22.75;;;13.23;;
42840;SDS011;28491;46.898;7.660;2022-12-07T10:46:26;18.80;;;11.77;;
42840;SDS011;28491;46.898;7.660;2022-12-07T10:54:18;21.52;;;12.75;;
42840;SDS011;28491;46.898;7.660;2022-12-07T11:03:00;18.55;;;11.98;;
42840;SDS011;28491;46.898;7.660;2022-12-07T11:11:14;22.88;;;12.02;;
42840;SDS011;28491;46.898;7.660;2022-12-07T11:22:13;18.33;;;11.25;;
42840;SDS011;28491;46.898;7.660;2022-12-07T11:24:49;23.35;;;13.73;;
42840;SDS011;28491;46.898;7.660;2022-12-07T11:27:24;17.08;;;11.80;;
42840;SDS011;28491;46.898;7.660;2022-12-07T11:30:28;16.05;;;11.40;;
42840;SDS011;28491;46.898;7.660;2022-12-07T11:41:12;21.25;;;13.27;;
42840;SDS011;28491;46.898;7.660;2022-12-07T11:43:47;19.38;;;13.77;;
42840;SDS011;28491;46.898;7.660;2022-12-07T11:46:15;19.25;;;11.70;;
42840;SDS011;28491;46.898;7.660;2022-12-07T11:48:54;16.35;;;11.48;;
42840;SDS011;28491;46.898;7.660;2022-12-07T11:51:27;18.00;;;12.05;;
42840;SDS011;28491;46.898;7.660;2022-12-07T11:54:01;18.83;;;11.55;;
42840;SDS011;28491;46.898;7.660;2022-12-07T11:56:35;20.42;;;13.70;;
42840;SDS011;28491;46.898;7.660;2022-12-07T11:59:12;19.25;;;11.95;;
42840;SDS011;28491;46.898;7.660;2022-12-07T12:06:35;22.30;;;14.05;;
42840;SDS011;28491;46.898;7.660;2022-12-07T12:22:27;23.52;;;14.02;;
42840;SDS011;28491;46.898;7.660;2022-12-07T12:25:04;24.08;;;13.00;;
42840;SDS011;28491;46.898;7.660;2022-12-07T12:27:33;33.20;;;14.20;;
42840;SDS011;28491;46.898;7.660;2022-12-07T12:30:04;23.02;;;13.65;;
42840;SDS011;28491;46.898;7.660;2022-12-07T12:32:38;25.23;;;13.32;;
42840;SDS011;28491;46.898;7.660;2022-12-07T12:40:48;18.88;;;12.15;;
42840;SDS011;28491;46.898;7.660;2022-12-07T12:55:43;27.60;;;16.27;;
42840;SDS011;28491;46.898;7.660;2022-12-07T12:57:35;24.02;;;13.25;;
42840;SDS011;28491;46.898;7.660;2022-12-07T13:00:12;25.17;;;13.60;;
42840;SDS011;28491;46.898;7.660;2022-12-07T13:02:49;26.70;;;14.27;;
42840;SDS011;28491;46.898;7.660;2022-12-07T13:05:21;24.00;;;15.23;;
42840;SDS011;28491;46.898;7.660;2022-12-07T13:10:38;25.38;;;14.23;;
42840;SDS011;28491;46.898;7.660;2022-12-07T13:15:41;26.20;;;15.18;;
42840;SDS011;28491;46.898;7.660;2022-12-07T13:20:43;36.42;;;16.75;;
42840;SDS011;28491;46.898;7.660;2022-12-07T13:23:16;26.58;;;15.80;;
42840;SDS011;28491;46.898;7.660;2022-12-07T13:25:48;30.20;;;15.90;;
42840;SDS011;28491;46.898;7.660;2022-12-07T13:28:26;26.35;;;15.35;;
42840;SDS011;28491;46.898;7.660;2022-12-07T13:31:02;25.20;;;15.45;;
42840;SDS011;28491;46.898;7.660;2022-12-07T13:33:37;28.30;;;15.98;;
42840;SDS011;28491;46.898;7.660;2022-12-07T13:36:03;31.13;;;16.70;;
42840;SDS011;28491;46.898;7.660;2022-12-07T13:38:33;27.73;;;15.50;;
42840;SDS011;28491;46.898;7.660;2022-12-07T13:41:11;28.45;;;16.13;;
42840;SDS011;28491;46.898;7.660;2022-12-07T13:43:45;29.92;;;15.65;;
42840;SDS011;28491;46.898;7.660;2022-12-07T13:46:14;30.20;;;16.23;;
42840;SDS011;28491;46.898;7.660;2022-12-07T13:48:43;26.05;;;14.43;;
42840;SDS011;28491;46.898;7.660;2022-12-07T13:51:16;25.60;;;13.70;;
42840;SDS011;28491;46.898;7.660;2022-12-07T13:53:50;29.13;;;16.77;;
42840;SDS011;28491;46.898;7.660;2022-12-07T13:56:18;30.95;;;18.75;;
42840;SDS011;28491;46.898;7.660;2022-12-07T13:58:45;29.48;;;16.25;;
42840;SDS011;28491;46.898;7.660;2022-12-07T14:01:11;26.33;;;14.82;;
42840;SDS011;28491;46.898;7.660;2022-12-07T14:03:38;27.23;;;16.55;;
42840;SDS011;28491;46.898;7.660;2022-12-07T14:08:39;31.10;;;16.33;;
42840;SDS011;28491;46.898;7.660;2022-12-07T14:11:05;24.40;;;15.30;;
42840;SDS011;28491;46.898;7.660;2022-12-07T14:13:40;27.40;;;14.23;;
42840;SDS011;28491;46.898;7.660;2022-12-07T14:18:53;26.88;;;15.18;;
42840;SDS011;28491;46.898;7.660;2022-12-07T14:21:21;25.27;;;14.93;;
42840;SDS011;28491;46.898;7.660;2022-12-07T14:26:41;28.58;;;15.63;;
42840;SDS011;28491;46.898;7.660;2022-12-07T14:31:46;33.28;;;18.25;;
42840;SDS011;28491;46.898;7.660;2022-12-07T14:34:12;25.70;;;15.70;;
42840;SDS011;28491;46.898;7.660;2022-12-07T14:36:38;24.05;;;14.70;;
42840;SDS011;28491;46.898;7.660;2022-12-07T14:39:03;28.48;;;14.73;;
42840;SDS011;28491;46.898;7.660;2022-12-07T14:41:29;25.52;;;15.07;;
42840;SDS011;28491;46.898;7.660;2022-12-07T14:44:13;26.02;;;14.65;;
42840;SDS011;28491;46.898;7.660;2022-12-07T14:46:39;26.58;;;14.32;;
42840;SDS011;28491;46.898;7.660;2022-12-07T14:49:04;29.33;;;15.57;;
42840;SDS011;28491;46.898;7.660;2022-12-07T14:51:30;30.52;;;16.38;;
42840;SDS011;28491;46.898;7.660;2022-12-07T14:53:56;33.08;;;17.00;;
42840;SDS011;28491;46.898;7.660;2022-12-07T14:56:21;28.90;;;17.98;;
42840;SDS011;28491;46.898;7.660;2022-12-07T14:58:47;26.30;;;16.02;;
42840;SDS011;28491;46.898;7.660;2022-12-07T15:01:13;33.47;;;16.75;;
42840;SDS011;28491;46.898;7.660;2022-12-07T15:03:39;32.22;;;15.00;;
42840;SDS011;28491;46.898;7.660;2022-12-07T15:06:05;31.50;;;18.38;;
42840;SDS011;28491;46.898;7.660;2022-12-07T15:08:31;33.42;;;16.65;;
42840;SDS011;28491;46.898;7.660;2022-12-07T15:10:57;30.90;;;16.42;;
42840;SDS011;28491;46.898;7.660;2022-12-07T15:13:22;29.40;;;16.13;;
42840;SDS011;28491;46.898;7.660;2022-12-07T15:16:10;34.17;;;17.75;;
42840;SDS011;28491;46.898;7.660;2022-12-07T15:18:38;36.95;;;19.27;;
42840;SDS011;28491;46.898;7.660;2022-12-07T15:21:03;34.53;;;19.77;;
42840;SDS011;28491;46.898;7.660;2022-12-07T15:23:29;33.55;;;18.33;;
42840;SDS011;28491;46.898;7.660;2022-12-07T15:25:54;30.10;;;17.17;;
42840;SDS011;28491;46.898;7.660;2022-12-07T15:28:20;32.30;;;18.17;;
42840;SDS011;28491;46.898;7.660;2022-12-07T15:30:45;30.27;;;17.17;;
42840;SDS011;28491;46.898;7.660;2022-12-07T15:33:11;36.50;;;18.63;;
42840;SDS011;28491;46.898;7.660;2022-12-07T15:35:41;27.95;;;17.55;;
42840;SDS011;28491;46.898;7.660;2022-12-07T15:38:09;32.97;;;18.70;;
42840;SDS011;28491;46.898;7.660;2022-12-07T15:40:34;28.50;;;16.25;;
42840;SDS011;28491;46.898;7.660;2022-12-07T15:43:00;29.10;;;14.52;;
42840;SDS011;28491;46.898;7.660;2022-12-07T15:45:26;24.70;;;15.05;;
42840;SDS011;28491;46.898;7.660;2022-12-07T15:47:52;25.15;;;16.00;;
42840;SDS011;28491;46.898;7.660;2022-12-07T15:50:19;26.83;;;15.70;;
42840;SDS011;28491;46.898;7.660;2022-12-07T15:52:45;31.77;;;17.50;;
42840;SDS011;28491;46.898;7.660;2022-12-07T15:55:11;24.95;;;15.60;;
42840;SDS011;28491;46.898;7.660;2022-12-07T15:57:37;23.70;;;15.43;;
42840;SDS011;28491;46.898;7.660;2022-12-07T16:00:04;23.90;;;14.85;;
42840;SDS011;28491;46.898;7.660;2022-12-07T16:02:31;28.55;;;16.73;;
42840;SDS011;28491;46.898;7.660;2022-12-07T16:04:57;27.27;;;16.10;;
42840;SDS011;28491;46.898;7.660;2022-12-07T16:07:22;28.73;;;16.45;;
42840;SDS011;28491;46.898;7.660;2022-12-07T16:09:48;30.60;;;16.85;;
42840;SDS011;28491;46.898;7.660;2022-12-07T16:12:17;32.47;;;17.38;;
42840;SDS011;28491;46.898;7.660;2022-12-07T16:14:43;32.95;;;16.88;;
42840;SDS011;28491;46.898;7.660;2022-12-07T16:17:08;24.00;;;15.27;;
42840;SDS011;28491;46.898;7.660;2022-12-07T16:19:35;30.35;;;15.38;;
42840;SDS011;28491;46.898;7.660;2022-12-07T16:22:01;29.58;;;15.88;;
42840;SDS011;28491;46.898;7.660;2022-12-07T16:24:28;28.00;;;13.50;;
42840;SDS011;28491;46.898;7.660;2022-12-07T16:26:53;29.92;;;16.85;;
42840;SDS011;28491;46.898;7.660;2022-12-07T16:29:19;26.35;;;14.70;;
42840;SDS011;28491;46.898;7.660;2022-12-07T16:31:46;28.02;;;14.88;;
42840;SDS011;28491;46.898;7.660;2022-12-07T16:34:13;27.67;;;15.82;;
42840;SDS011;28491;46.898;7.660;2022-12-07T16:36:38;27.88;;;15.32;;
42840;SDS011;28491;46.898;7.660;2022-12-07T16:39:04;27.80;;;15.98;;
42840;SDS011;28491;46.898;7.660;2022-12-07T16:41:30;29.48;;;18.13;;
42840;SDS011;28491;46.898;7.660;2022-12-07T16:43:56;31.27;;;17.02;;
42840;SDS011;28491;46.898;7.660;2022-12-07T16:46:21;25.48;;;15.02;;